San Aurelio — A8PC9 — position and weather

sailwx.info

Track history (hours):
 
Tides and Currents Weather Stations Pressure Air Temp Water Temp Dewpoint Dewpoint Depression Visibility Wind Speed Wind Dir Waves Ship Positions

San Aurelio

Last reported at 2014-Oct-01 18:00 UTC. Time now 2014-Oct-01 22:25 UTC.
Position N 06°12' E 112°54'.

Length 186 m; draft 8.5 m.

Type: Cargo ship. MMSI: 636091534.

Wind from 290 at 4 knots

Barometer 1009.5 mb
Air temperature 28.0 ° C
Visibility: greater than 10.8 NM
Dewpoint 23.9 ° C

Date/timePositionNaut miles runAvg speedWind from/ knotsBaromVisibWave heightAir tempDewpointWater temp
2014-Oct-01 18:00N 06°12' E 112°54'16613.8 290 / 41009.510.8 28.023.9
2014-Oct-01 06:00N 04°48' E 110°30'17014.2 300 / 41009.0 5.4 30.024.6
2014-Sep-30 18:00N 03°00' E 108°18'26713.0 320 / 41010.010.8 28.522.2
2014-Sep-29 21:29N 01°16' E 104°12'1617.3
2014-Sep-29 20:34N 01°13' E 103°56'1716.6
2014-Sep-29 19:33N 01°04' E 103°42'1413.5
2014-Sep-29 18:33N 01°13' E 103°32'9 8.9
2014-Sep-29 17:33N 01°22' E 103°32'0 0.1
2014-Sep-29 16:32N 01°22' E 103°33'0 0.1
2014-Sep-29 15:26N 01°22' E 103°33'0 0.0
2014-Sep-29 14:32N 01°22' E 103°33'0 0.0
2014-Sep-29 13:32N 01°22' E 103°33'0 0.0
2014-Sep-29 12:26N 01°22' E 103°33'0 0.1
2014-Sep-29 11:32N 01°22' E 103°33'0 0.1
2014-Sep-29 10:29N 01°22' E 103°33'0 0.0
2014-Sep-29 09:29N 01°22' E 103°33'0 0.0
2014-Sep-29 08:14N 01°22' E 103°33'1 1.4
2014-Sep-29 07:33N 01°21' E 103°33'6 6.1
2014-Sep-29 06:31N 01°15' E 103°33'0 0.1
2014-Sep-29 05:16N 01°15' E 103°33'0 0.0
2014-Sep-29 04:31N 01°15' E 103°33'0 0.1
2014-Sep-29 03:31N 01°15' E 103°33'0 0.0
2014-Sep-29 02:31N 01°15' E 103°33'0 0.1
2014-Sep-29 01:31N 01°15' E 103°33'0 0.0
2014-Sep-29 00:31N 01°15' E 103°33'0 0.0
2014-Sep-28 23:31N 01°15' E 103°33'0 0.0
2014-Sep-28 22:28N 01°15' E 103°33'0 0.0
2014-Sep-28 21:31N 01°15' E 103°33'0 0.0
2014-Sep-28 20:31N 01°15' E 103°33'0 0.0
2014-Sep-28 19:31N 01°15' E 103°33'0 0.1
2014-Sep-28 18:31N 01°15' E 103°33'0 0.0
2014-Sep-28 17:31N 01°15' E 103°33'0 0.0
2014-Sep-28 16:28N 01°15' E 103°33'0 0.0
2014-Sep-28 15:31N 01°15' E 103°33'0 0.1
2014-Sep-28 14:31N 01°15' E 103°33'0 0.0
2014-Sep-28 13:28N 01°15' E 103°33'0 0.0
2014-Sep-28 12:31N 01°15' E 103°33'0 0.0
2014-Sep-28 11:31N 01°15' E 103°33'0 0.0
2014-Sep-28 10:31N 01°15' E 103°33'0 0.1
2014-Sep-28 09:25N 01°15' E 103°33'0 0.1
2014-Sep-28 08:28N 01°15' E 103°33'0 0.0
2014-Sep-28 07:34N 01°15' E 103°33'1 1.4
2014-Sep-28 06:33N 01°14' E 103°32'5 4.7
2014-Sep-28 05:33N 01°12' E 103°36'1111.4
2014-Sep-28 04:33N 01°10' E 103°47'6 6.3
2014-Sep-28 03:33N 01°16' E 103°51'1 1.0
2014-Sep-28 02:29N 01°16' E 103°50'0 0.1
2014-Sep-28 01:32N 01°16' E 103°50'0 0.1
2014-Sep-28 00:29N 01°16' E 103°50'0 0.0
2014-Sep-27 23:32N 01°16' E 103°50'0 0.0
2014-Sep-27 22:32N 01°16' E 103°50'0 0.0
2014-Sep-27 21:32N 01°16' E 103°50'0 0.0
2014-Sep-27 20:32N 01°16' E 103°50'0 0.0
2014-Sep-27 19:29N 01°16' E 103°50'0 0.0
2014-Sep-27 18:32N 01°16' E 103°50'0 0.0
2014-Sep-27 15:29N 01°16' E 103°50'0 0.0
2014-Sep-27 14:17N 01°16' E 103°50'0 0.0
2014-Sep-27 13:29N 01°16' E 103°50'0 0.0
2014-Sep-27 11:29N 01°16' E 103°50'0 0.0
2014-Sep-27 09:23N 01°16' E 103°50'0 0.0
2014-Sep-27 08:29N 01°16' E 103°50'0 0.0
2014-Sep-27 07:20N 01°16' E 103°50'0 0.0
2014-Sep-27 06:33N 01°16' E 103°50'4 4.1
2014-Sep-27 05:33N 01°14' E 103°53'9 8.8
2014-Sep-27 04:33N 01°16' E 104°02'16215.3
2014-Sep-26 18:00N 01°36' E 106°42'13617.0 200 / 21012.510.8 28.023.2
2014-Sep-26 10:00N 03°06' E 108°24'28317.7 010 / 21010.5 5.4 29.523.330.0
2014-Sep-25 18:00N 05°54' E 112°12'20417.0 340 / 61011.010.8 28.523.7
2014-Sep-25 06:00N 07°06' E 115°24'20717.2 050 / 41009.610.8 29.524.0
2014-Sep-24 18:00N 07°48' E 118°48'   350 / 41010.010.8 29.023.5
Track history (hours):
 
Tides and Currents Weather Stations Pressure Air Temp Water Temp Dewpoint Dewpoint Depression Visibility Wind Speed Wind Dir Waves Ship Positions

San Aurelio

Last reported at 2014-Oct-01 18:00 UTC. Time now 2014-Oct-01 22:25 UTC.
Position N 06°12' E 112°54'.

Length 186 m; draft 8.5 m.

Type: Cargo ship. MMSI: 636091534.

Wind from 290 at 4 knots

Barometer 1009.5 mb
Air temperature 28.0 ° C
Visibility: greater than 10.8 NM
Dewpoint 23.9 ° C

Date/timePositionNaut miles runAvg speedWind from/ knotsBaromVisibWave heightAir tempDewpointWater temp
2014-Oct-01 18:00N 06°12' E 112°54'16613.8 290 / 41009.510.8 28.023.9
2014-Oct-01 06:00N 04°48' E 110°30'17014.2 300 / 41009.0 5.4 30.024.6
2014-Sep-30 18:00N 03°00' E 108°18'26713.0 320 / 41010.010.8 28.522.2
2014-Sep-29 21:29N 01°16' E 104°12'1617.3
2014-Sep-29 20:34N 01°13' E 103°56'1716.6
2014-Sep-29 19:33N 01°04' E 103°42'1413.5
2014-Sep-29 18:33N 01°13' E 103°32'9 8.9
2014-Sep-29 17:33N 01°22' E 103°32'0 0.1
2014-Sep-29 16:32N 01°22' E 103°33'0 0.1
2014-Sep-29 15:26N 01°22' E 103°33'0 0.0
2014-Sep-29 14:32N 01°22' E 103°33'0 0.0
2014-Sep-29 13:32N 01°22' E 103°33'0 0.0
2014-Sep-29 12:26N 01°22' E 103°33'0 0.1
2014-Sep-29 11:32N 01°22' E 103°33'0 0.1
2014-Sep-29 10:29N 01°22' E 103°33'0 0.0
2014-Sep-29 09:29N 01°22' E 103°33'0 0.0
2014-Sep-29 08:14N 01°22' E 103°33'1 1.4
2014-Sep-29 07:33N 01°21' E 103°33'6 6.1
2014-Sep-29 06:31N 01°15' E 103°33'0 0.1
2014-Sep-29 05:16N 01°15' E 103°33'0 0.0
2014-Sep-29 04:31N 01°15' E 103°33'0 0.1
2014-Sep-29 03:31N 01°15' E 103°33'0 0.0
2014-Sep-29 02:31N 01°15' E 103°33'0 0.1
2014-Sep-29 01:31N 01°15' E 103°33'0 0.0
2014-Sep-29 00:31N 01°15' E 103°33'0 0.0
2014-Sep-28 23:31N 01°15' E 103°33'0 0.0
2014-Sep-28 22:28N 01°15' E 103°33'0 0.0
2014-Sep-28 21:31N 01°15' E 103°33'0 0.0
2014-Sep-28 20:31N 01°15' E 103°33'0 0.0
2014-Sep-28 19:31N 01°15' E 103°33'0 0.1
2014-Sep-28 18:31N 01°15' E 103°33'0 0.0
2014-Sep-28 17:31N 01°15' E 103°33'0 0.0
2014-Sep-28 16:28N 01°15' E 103°33'0 0.0
2014-Sep-28 15:31N 01°15' E 103°33'0 0.1
2014-Sep-28 14:31N 01°15' E 103°33'0 0.0
2014-Sep-28 13:28N 01°15' E 103°33'0 0.0
2014-Sep-28 12:31N 01°15' E 103°33'0 0.0
2014-Sep-28 11:31N 01°15' E 103°33'0 0.0
2014-Sep-28 10:31N 01°15' E 103°33'0 0.1
2014-Sep-28 09:25N 01°15' E 103°33'0 0.1
2014-Sep-28 08:28N 01°15' E 103°33'0 0.0
2014-Sep-28 07:34N 01°15' E 103°33'1 1.4
2014-Sep-28 06:33N 01°14' E 103°32'5 4.7
2014-Sep-28 05:33N 01°12' E 103°36'1111.4
2014-Sep-28 04:33N 01°10' E 103°47'6 6.3
2014-Sep-28 03:33N 01°16' E 103°51'1 1.0
2014-Sep-28 02:29N 01°16' E 103°50'0 0.1
2014-Sep-28 01:32N 01°16' E 103°50'0 0.1
2014-Sep-28 00:29N 01°16' E 103°50'0 0.0
2014-Sep-27 23:32N 01°16' E 103°50'0 0.0
2014-Sep-27 22:32N 01°16' E 103°50'0 0.0
2014-Sep-27 21:32N 01°16' E 103°50'0 0.0
2014-Sep-27 20:32N 01°16' E 103°50'0 0.0
2014-Sep-27 19:29N 01°16' E 103°50'0 0.0
2014-Sep-27 18:32N 01°16' E 103°50'0 0.0
2014-Sep-27 15:29N 01°16' E 103°50'0 0.0
2014-Sep-27 14:17N 01°16' E 103°50'0 0.0
2014-Sep-27 13:29N 01°16' E 103°50'0 0.0
2014-Sep-27 11:29N 01°16' E 103°50'0 0.0
2014-Sep-27 09:23N 01°16' E 103°50'0 0.0
2014-Sep-27 08:29N 01°16' E 103°50'0 0.0
2014-Sep-27 07:20N 01°16' E 103°50'0 0.0
2014-Sep-27 06:33N 01°16' E 103°50'4 4.1
2014-Sep-27 05:33N 01°14' E 103°53'9 8.8
2014-Sep-27 04:33N 01°16' E 104°02'16215.3
2014-Sep-26 18:00N 01°36' E 106°42'13617.0 200 / 21012.510.8 28.023.2
2014-Sep-26 10:00N 03°06' E 108°24'28317.7 010 / 21010.5 5.4 29.523.330.0
2014-Sep-25 18:00N 05°54' E 112°12'20417.0 340 / 61011.010.8 28.523.7
2014-Sep-25 06:00N 07°06' E 115°24'20717.2 050 / 41009.610.8 29.524.0
2014-Sep-24 18:00N 07°48' E 118°48'   350 / 41010.010.8 29.023.5

Dump ship's entire track history